createdAt,value
2019-05-07T00:02:05.929Z,8.40
2019-05-07T00:04:36.178Z,7.60
2019-05-07T00:07:07.907Z,7.23
2019-05-07T00:09:38.001Z,8.53
2019-05-07T00:12:08.156Z,7.90
2019-05-07T00:14:38.589Z,8.77
2019-05-07T00:17:08.863Z,7.83
2019-05-07T00:19:38.987Z,8.60
2019-05-07T00:22:09.051Z,8.13
2019-05-07T00:24:39.175Z,7.90
2019-05-07T00:27:09.651Z,8.33
2019-05-07T00:29:42.690Z,7.77
2019-05-07T00:32:12.296Z,7.80
2019-05-07T00:34:48.198Z,8.87
2019-05-07T00:37:32.305Z,8.43
2019-05-07T00:40:22.433Z,8.07
2019-05-07T00:43:08.591Z,8.20
2019-05-07T00:45:47.191Z,8.87
2019-05-07T00:48:17.349Z,7.97
2019-05-07T00:50:49.613Z,7.63
2019-05-07T00:53:21.077Z,8.80
2019-05-07T00:55:52.552Z,8.07
2019-05-07T00:58:26.750Z,8.10
2019-05-07T01:00:55.835Z,8.67
2019-05-07T01:03:26.205Z,8.37
2019-05-07T01:05:56.273Z,7.60
2019-05-07T01:08:26.348Z,7.83
2019-05-07T01:10:56.567Z,7.93
2019-05-07T01:13:26.619Z,7.90
2019-05-07T01:15:56.755Z,7.37
2019-05-07T01:18:26.947Z,6.77
2019-05-07T01:20:57.217Z,8.57
2019-05-07T01:23:27.408Z,8.07
2019-05-07T01:25:57.473Z,8.00
2019-05-07T01:28:27.655Z,9.27
2019-05-07T01:30:59.285Z,7.03
2019-05-07T01:33:35.179Z,7.10
2019-05-07T01:36:13.397Z,7.63
2019-05-07T01:38:43.605Z,8.03
2019-05-07T01:41:13.654Z,7.00
2019-05-07T01:43:43.813Z,8.20
2019-05-07T01:46:14.121Z,8.20
2019-05-07T01:48:44.343Z,7.63
2019-05-07T01:51:14.487Z,6.93
2019-05-07T01:53:44.575Z,7.60
2019-05-07T01:56:14.816Z,7.63
2019-05-07T01:58:44.983Z,7.30
2019-05-07T02:01:15.523Z,7.80
2019-05-07T02:03:52.813Z,7.47
2019-05-07T02:06:34.079Z,8.13
2019-05-07T02:09:12.980Z,7.90
2019-05-07T02:11:46.260Z,7.40
2019-05-07T02:14:17.634Z,7.13
2019-05-07T02:16:47.803Z,7.60
2019-05-07T02:19:17.877Z,7.37
2019-05-07T02:21:48.233Z,7.20
2019-05-07T02:24:18.377Z,8.23
2019-05-07T02:26:48.448Z,7.50
2019-05-07T02:29:18.550Z,6.80
2019-05-07T02:31:48.702Z,7.90
2019-05-07T02:34:19.124Z,8.00
2019-05-07T02:36:49.500Z,7.00
2019-05-07T02:39:29.097Z,6.73
2019-05-07T02:41:59.404Z,7.13
2019-05-07T02:44:32.363Z,7.83
2019-05-07T02:47:08.473Z,7.13
2019-05-07T02:49:53.640Z,6.50
2019-05-07T02:52:43.716Z,6.63
2019-05-07T02:55:37.148Z,6.60
2019-05-07T02:58:07.748Z,7.10
2019-05-07T03:00:37.919Z,7.10
2019-05-07T03:03:08.596Z,6.60
2019-05-07T03:05:38.785Z,7.03
2019-05-07T03:08:09.107Z,7.40
2019-05-07T03:10:39.510Z,7.00
2019-05-07T03:13:10.083Z,7.00
2019-05-07T03:15:43.452Z,7.53
2019-05-07T03:18:16.844Z,5.30
2019-05-07T03:20:53.738Z,6.70
2019-05-07T03:23:28.022Z,6.30
2019-05-07T03:26:13.648Z,6.60
2019-05-07T03:28:57.235Z,6.80
2019-05-07T03:31:46.563Z,7.03
2019-05-07T03:34:37.002Z,6.50
2019-05-07T03:37:13.320Z,6.70
2019-05-07T03:39:43.313Z,7.27
2019-05-07T03:42:13.904Z,7.20
2019-05-07T03:44:56.224Z,7.80
2019-05-07T03:47:32.941Z,7.40
2019-05-07T03:50:03.325Z,6.90
2019-05-07T03:52:34.160Z,7.53
2019-05-07T03:55:06.422Z,8.00
2019-05-07T03:57:36.795Z,6.77
2019-05-07T04:00:07.839Z,7.70
2019-05-07T04:02:37.996Z,7.47
2019-05-07T04:05:09.213Z,7.33
2019-05-07T04:07:39.393Z,7.20
2019-05-07T04:10:11.341Z,6.80
2019-05-07T04:12:44.116Z,8.13
2019-05-07T04:15:18.820Z,6.70
2019-05-07T04:17:46.268Z,7.13
2019-05-07T04:20:16.724Z,6.80
2019-05-07T04:22:46.912Z,7.30
2019-05-07T04:25:48.181Z,7.07
2019-05-07T04:28:37.275Z,7.50
2019-05-07T04:31:07.523Z,6.67
2019-05-07T04:33:43.870Z,7.10
2019-05-07T04:36:34.094Z,7.13
2019-05-07T04:39:07.280Z,7.43
2019-05-07T04:41:37.757Z,7.40
2019-05-07T04:44:08.125Z,7.33
2019-05-07T04:46:38.199Z,7.10
2019-05-07T04:49:08.336Z,7.13
2019-05-07T04:51:44.449Z,6.63
2019-05-07T04:54:14.633Z,6.03
2019-05-07T04:56:44.948Z,6.57
2019-05-07T04:59:15.161Z,7.30
2019-05-07T05:01:54.960Z,5.87
2019-05-07T05:04:30.564Z,6.10
2019-05-07T05:07:02.837Z,5.67
2019-05-07T05:09:33.310Z,6.00
2019-05-07T05:12:03.636Z,6.03
2019-05-07T05:14:34.263Z,5.97
2019-05-07T05:17:04.552Z,6.47
2019-05-07T05:19:34.783Z,6.60
2019-05-07T05:22:27.052Z,6.43
2019-05-07T05:25:16.417Z,6.73
2019-05-07T05:27:46.546Z,6.27
2019-05-07T05:30:22.423Z,6.40
2019-05-07T05:32:52.737Z,7.10
2019-05-07T05:35:23.127Z,6.60
2019-05-07T05:37:54.507Z,6.10
2019-05-07T05:40:24.901Z,6.50
2019-05-07T05:43:02.008Z,6.33
2019-05-07T05:45:37.895Z,6.40
2019-05-07T05:48:08.748Z,6.30
2019-05-07T05:51:02.703Z,6.00
2019-05-07T05:53:43.401Z,6.30
2019-05-07T05:56:22.855Z,6.22
2019-05-07T05:59:24.322Z,7.10
2019-05-07T06:02:06.558Z,6.97
2019-05-07T06:04:52.659Z,8.17
2019-05-07T06:07:36.487Z,5.47
2019-05-07T06:10:25.598Z,7.13
2019-05-07T06:13:23.545Z,7.40
2019-05-07T06:15:59.510Z,5.50
2019-05-07T06:18:42.556Z,5.67
2019-05-07T06:21:26.363Z,7.03
2019-05-07T06:23:59.285Z,7.50
2019-05-07T06:26:31.877Z,7.10
2019-05-07T06:29:02.573Z,7.50
2019-05-07T06:31:32.860Z,6.90
2019-05-07T06:34:03.390Z,7.80
2019-05-07T06:36:35.104Z,7.40
2019-05-07T06:39:15.442Z,7.37
2019-05-07T06:42:03.093Z,7.30
2019-05-07T06:44:33.527Z,7.90
2019-05-07T06:47:03.665Z,8.80
2019-05-07T06:49:35.019Z,5.20
2019-05-07T06:52:05.393Z,9.17
2019-05-07T06:54:35.575Z,9.30
2019-05-07T06:57:06.987Z,9.37
2019-05-07T06:59:45.261Z,9.90
2019-05-07T07:02:42.212Z,10.30
2019-05-07T07:05:42.580Z,9.83
2019-05-07T07:08:20.411Z,7.43
2019-05-07T07:11:09.182Z,11.10
2019-05-07T07:13:39.490Z,10.20
2019-05-07T07:16:09.712Z,10.50
2019-05-07T07:18:51.286Z,10.57
2019-05-07T07:21:12.446Z,10.67
2019-05-07T07:23:43.047Z,9.17
2019-05-07T07:26:13.279Z,9.40
2019-05-07T07:28:43.564Z,7.63
2019-05-07T07:31:32.993Z,7.47
2019-05-07T07:34:05.051Z,8.83
2019-05-07T07:36:42.338Z,10.40
2019-05-07T07:39:12.754Z,7.30
2019-05-07T07:42:02.903Z,8.40
2019-05-07T07:44:33.614Z,7.37
2019-05-07T07:47:04.023Z,10.17
2019-05-07T07:49:34.146Z,11.10
2019-05-07T07:52:04.391Z,9.00
2019-05-07T07:54:34.918Z,7.50
2019-05-07T07:57:27.085Z,7.07
2019-05-07T08:00:15.002Z,7.17
2019-05-07T08:02:52.906Z,7.93
2019-05-07T08:05:23.311Z,6.30
2019-05-07T08:07:53.415Z,6.47
2019-05-07T08:10:24.255Z,7.70
2019-05-07T08:12:54.387Z,7.67
2019-05-07T08:15:25.017Z,8.10
2019-05-07T08:17:56.713Z,8.73
2019-05-07T08:20:28.179Z,9.27
2019-05-07T08:22:58.617Z,7.07
2019-05-07T08:25:46.379Z,8.37
2019-05-07T08:28:19.118Z,6.90
2019-05-07T08:31:14.349Z,6.70
2019-05-07T08:34:06.845Z,7.87
2019-05-07T08:36:36.977Z,7.93
2019-05-07T08:39:07.825Z,9.03
2019-05-07T08:41:37.993Z,5.90
2019-05-07T08:44:15.397Z,7.63
2019-05-07T08:46:54.593Z,9.10
2019-05-07T08:49:35.879Z,6.87
2019-05-07T08:52:03.833Z,6.67
2019-05-07T08:54:35.616Z,7.00
2019-05-07T08:57:06.052Z,7.10
2019-05-07T08:59:36.123Z,6.83
2019-05-07T09:02:06.667Z,9.30
2019-05-07T09:04:36.993Z,8.03
2019-05-07T09:07:07.354Z,9.43
2019-05-07T09:09:37.479Z,6.87
2019-05-07T09:12:07.831Z,9.35
2019-05-07T09:14:37.967Z,7.10
2019-05-07T09:17:08.216Z,7.50
2019-05-07T09:19:48.261Z,8.10
2019-05-07T09:22:12.519Z,8.73
2019-05-07T09:24:42.570Z,8.47
2019-05-07T09:27:22.375Z,8.50
2019-05-07T09:30:12.803Z,8.90
2019-05-07T09:32:54.003Z,8.40
2019-05-07T09:35:28.631Z,8.80
2019-05-07T09:37:58.836Z,6.53
2019-05-07T09:40:29.020Z,7.07
2019-05-07T09:42:59.418Z,8.00
2019-05-07T09:45:29.616Z,5.90
2019-05-07T09:48:00.167Z,7.70
2019-05-07T09:50:32.324Z,7.80
2019-05-07T09:53:03.399Z,7.97
2019-05-07T09:55:33.538Z,6.07
2019-05-07T09:58:03.711Z,6.83
2019-05-07T10:00:34.527Z,7.60
2019-05-07T10:03:04.646Z,6.10
2019-05-07T10:05:35.003Z,6.00
2019-05-07T10:08:05.765Z,7.70
2019-05-07T10:10:36.152Z,7.37
2019-05-07T10:13:24.049Z,6.80
2019-05-07T10:15:54.356Z,7.47
2019-05-07T10:18:25.634Z,7.50
2019-05-07T10:20:55.821Z,6.30
2019-05-07T10:23:26.258Z,5.80
2019-05-07T10:25:56.634Z,7.33
2019-05-07T10:28:26.737Z,6.73
2019-05-07T10:30:56.907Z,6.10
2019-05-07T10:33:27.658Z,4.90
2019-05-07T10:35:57.788Z,6.50
2019-05-07T10:38:28.087Z,7.37
2019-05-07T10:40:59.236Z,6.40
2019-05-07T10:43:32.586Z,6.20
2019-05-07T10:46:21.764Z,6.83
2019-05-07T10:49:14.556Z,5.33
2019-05-07T10:51:45.006Z,5.90
2019-05-07T10:54:15.584Z,6.50
2019-05-07T10:56:45.713Z,7.57
2019-05-07T10:59:15.810Z,7.97
2019-05-07T11:01:52.046Z,7.47
2019-05-07T11:04:22.514Z,7.20
2019-05-07T11:06:54.430Z,6.37
2019-05-07T11:09:24.484Z,7.50
2019-05-07T11:11:54.768Z,5.77
2019-05-07T11:14:24.847Z,6.63
2019-05-07T11:17:04.232Z,7.43
2019-05-07T11:19:34.482Z,7.17
2019-05-07T11:22:04.690Z,7.40
2019-05-07T11:24:34.754Z,6.27
2019-05-07T11:27:05.264Z,8.60
2019-05-07T11:29:36.683Z,7.57
2019-05-07T11:32:07.643Z,7.40
2019-05-07T11:34:39.424Z,6.70
2019-05-07T11:37:11.406Z,7.40
2019-05-07T11:39:42.770Z,6.17
2019-05-07T11:42:44.890Z,6.67
2019-05-07T11:45:19.522Z,6.60
2019-05-07T11:47:49.711Z,8.40
2019-05-07T11:50:37.233Z,5.70
2019-05-07T11:53:09.047Z,6.30
2019-05-07T11:55:39.450Z,7.40
2019-05-07T11:58:12.814Z,7.70
2019-05-07T12:00:49.977Z,7.20
2019-05-07T12:03:21.978Z,7.60
2019-05-07T12:05:53.796Z,8.40
2019-05-07T12:08:37.447Z,8.30
2019-05-07T12:10:55.891Z,8.03
2019-05-07T12:13:25.919Z,8.70
2019-05-07T12:15:56.140Z,8.30
2019-05-07T12:18:26.226Z,9.10
2019-05-07T12:20:56.290Z,8.37
2019-05-07T12:23:26.378Z,6.33
2019-05-07T12:25:56.776Z,9.03
2019-05-07T12:28:26.950Z,8.63
2019-05-07T12:31:34.646Z,6.30
2019-05-07T12:34:27.611Z,8.83
2019-05-07T12:36:57.833Z,6.80
2019-05-07T12:39:27.926Z,8.13
2019-05-07T12:41:58.063Z,6.47
2019-05-07T12:44:28.275Z,8.63
2019-05-07T12:46:58.354Z,8.93
2019-05-07T12:49:28.557Z,8.97
2019-05-07T12:52:31.912Z,6.80
2019-05-07T12:55:06.840Z,5.87
2019-05-07T12:57:36.927Z,7.70
2019-05-07T13:00:26.663Z,6.77
2019-05-07T13:03:12.740Z,9.00
2019-05-07T13:05:43.082Z,7.83
2019-05-07T13:08:13.346Z,8.23
2019-05-07T13:10:43.713Z,5.77
2019-05-07T13:13:13.978Z,6.03
2019-05-07T13:15:44.357Z,8.03
2019-05-07T13:18:14.621Z,7.87
2019-05-07T13:20:44.994Z,9.23
2019-05-07T13:23:15.169Z,7.70
2019-05-07T13:25:45.376Z,7.63
2019-05-07T13:28:15.763Z,7.70
2019-05-07T13:30:46.045Z,6.90
2019-05-07T13:33:18.062Z,8.10
2019-05-07T13:35:48.641Z,6.53
2019-05-07T13:38:53.018Z,7.73
2019-05-07T13:41:45.262Z,7.90
2019-05-07T13:44:34.903Z,7.00
2019-05-07T13:47:42.617Z,8.53
2019-05-07T13:50:13.415Z,8.18
2019-05-07T13:52:43.903Z,6.50
2019-05-07T13:55:14.469Z,7.57
2019-05-07T13:57:44.797Z,6.53
2019-05-07T14:00:22.698Z,7.37
2019-05-07T14:02:54.887Z,7.17
2019-05-07T14:05:25.070Z,7.57
2019-05-07T14:07:56.037Z,7.93
2019-05-07T14:10:26.201Z,7.37
2019-05-07T14:13:07.561Z,8.57
2019-05-07T14:15:28.441Z,8.07
2019-05-07T14:17:58.783Z,7.47
2019-05-07T14:20:29.136Z,7.30
2019-05-07T14:22:59.311Z,7.10
2019-05-07T14:25:29.474Z,8.30
2019-05-07T14:27:59.576Z,8.60
2019-05-07T14:30:29.576Z,8.93
2019-05-07T14:33:06.136Z,6.60
2019-05-07T14:35:52.048Z,8.50
2019-05-07T14:38:33.422Z,6.53
2019-05-07T14:41:04.599Z,8.90
2019-05-07T14:43:41.836Z,8.30
2019-05-07T14:46:13.516Z,8.63
2019-05-07T14:48:43.939Z,8.23
2019-05-07T14:51:14.244Z,6.37
2019-05-07T14:53:44.605Z,7.90
2019-05-07T14:56:15.155Z,6.73
2019-05-07T14:58:45.275Z,7.63
2019-05-07T15:01:15.843Z,9.73
2019-05-07T15:03:46.050Z,7.33
2019-05-07T15:06:16.602Z,7.50
2019-05-07T15:08:46.790Z,9.00
2019-05-07T15:11:16.908Z,7.70
2019-05-07T15:13:47.119Z,8.80
2019-05-07T15:16:22.512Z,8.03
2019-05-07T15:18:54.543Z,7.87
2019-05-07T15:21:25.002Z,7.07
2019-05-07T15:23:56.815Z,7.37
2019-05-07T15:26:26.984Z,8.80
2019-05-07T15:29:08.232Z,8.37
2019-05-07T15:31:55.877Z,8.53
2019-05-07T15:34:26.097Z,6.87
2019-05-07T15:36:56.511Z,7.20
2019-05-07T15:39:26.663Z,8.80
2019-05-07T15:41:56.775Z,7.63
2019-05-07T15:44:27.311Z,8.03
2019-05-07T15:46:59.153Z,8.57
2019-05-07T15:49:29.521Z,8.63
2019-05-07T15:52:01.870Z,7.90
2019-05-07T15:54:32.567Z,8.80
2019-05-07T15:57:05.110Z,8.23
2019-05-07T15:59:35.141Z,6.90
2019-05-07T16:02:13.390Z,8.20
2019-05-07T16:04:43.692Z,8.23
2019-05-07T16:07:14.059Z,7.33
2019-05-07T16:09:44.132Z,8.27
2019-05-07T16:12:17.674Z,7.63
2019-05-07T16:14:48.040Z,8.30
2019-05-07T16:17:27.873Z,7.10
2019-05-07T16:19:57.960Z,8.53
2019-05-07T16:22:33.322Z,9.00
2019-05-07T16:25:07.386Z,7.72
2019-05-07T16:27:42.386Z,7.70
2019-05-07T16:30:14.919Z,9.00
2019-05-07T16:32:45.137Z,7.77
2019-05-07T16:35:16.258Z,9.00
2019-05-07T16:37:46.669Z,7.70
2019-05-07T16:40:16.784Z,9.33
2019-05-07T16:42:47.247Z,7.40
2019-05-07T16:45:17.699Z,7.97
2019-05-07T16:47:47.909Z,8.60
2019-05-07T16:50:19.417Z,8.20
2019-05-07T16:52:52.207Z,7.37
2019-05-07T16:55:23.492Z,9.50
2019-05-07T16:58:02.803Z,8.37
2019-05-07T17:00:37.416Z,8.07
2019-05-07T17:03:11.702Z,7.43
2019-05-07T17:05:42.887Z,8.43
2019-05-07T17:08:31.940Z,8.57
2019-05-07T17:11:03.045Z,8.97
2019-05-07T17:13:34.510Z,8.70
2019-05-07T17:16:06.236Z,8.00
2019-05-07T17:18:36.328Z,7.73
2019-05-07T17:21:06.478Z,8.13
2019-05-07T17:23:43.975Z,7.80
2019-05-07T17:26:08.957Z,7.23
2019-05-07T17:28:39.179Z,7.37
2019-05-07T17:31:09.343Z,8.40
2019-05-07T17:33:39.495Z,8.50
2019-05-07T17:36:11.909Z,7.50
2019-05-07T17:38:42.882Z,7.73
2019-05-07T17:41:21.249Z,7.60
2019-05-07T17:43:46.547Z,9.00
2019-05-07T17:46:17.002Z,8.18
2019-05-07T17:48:48.607Z,9.13
2019-05-07T17:51:38.034Z,8.70
2019-05-07T17:54:08.442Z,7.67
2019-05-07T17:56:42.077Z,8.20
2019-05-07T17:59:14.720Z,7.80
2019-05-07T18:01:59.227Z,9.40
2019-05-07T18:04:32.445Z,9.60
2019-05-07T18:07:03.005Z,8.90
2019-05-07T18:09:33.797Z,8.40
2019-05-07T18:12:05.126Z,9.93
2019-05-07T18:14:35.498Z,9.40
2019-05-07T18:17:28.081Z,8.63
2019-05-07T18:19:58.464Z,9.77
2019-05-07T18:22:28.677Z,9.10
2019-05-07T18:24:59.142Z,9.70
2019-05-07T18:27:29.381Z,10.07
2019-05-07T18:29:59.596Z,9.77
2019-05-07T18:32:35.853Z,9.57
2019-05-07T18:35:06.922Z,10.17
2019-05-07T18:37:42.116Z,10.80
2019-05-07T18:40:12.720Z,9.90
2019-05-07T18:42:43.361Z,9.80
2019-05-07T18:45:13.539Z,11.07
2019-05-07T18:47:43.765Z,10.47
2019-05-07T18:50:14.940Z,10.05
2019-05-07T18:52:45.429Z,10.03
2019-05-07T18:55:15.645Z,9.00
2019-05-07T18:58:02.592Z,10.00
2019-05-07T19:00:38.400Z,9.57
2019-05-07T19:03:09.266Z,10.10
2019-05-07T19:05:39.677Z,9.70
2019-05-07T19:08:12.411Z,9.93
2019-05-07T19:10:43.138Z,10.40
2019-05-07T19:13:16.452Z,10.80
2019-05-07T19:15:47.450Z,10.53
2019-05-07T19:18:18.334Z,10.27
2019-05-07T19:20:50.031Z,10.50
2019-05-07T19:23:22.508Z,9.83
2019-05-07T19:25:53.307Z,10.07
2019-05-07T19:28:24.808Z,10.30
2019-05-07T19:31:02.365Z,9.90
2019-05-07T19:33:41.927Z,9.70
2019-05-07T19:36:13.744Z,10.20
2019-05-07T19:38:44.308Z,10.70
2019-05-07T19:41:17.270Z,11.17
2019-05-07T19:43:47.647Z,12.10
2019-05-07T19:46:17.858Z,10.93
2019-05-07T19:48:52.029Z,10.93
2019-05-07T19:51:25.879Z,11.43
2019-05-07T19:54:02.129Z,11.23
2019-05-07T19:56:44.188Z,10.93
2019-05-07T19:59:17.410Z,11.00
2019-05-07T20:01:58.313Z,10.47
2019-05-07T20:04:28.821Z,9.10
2019-05-07T20:07:00.333Z,11.10
2019-05-07T20:09:35.010Z,9.90
2019-05-07T20:12:07.986Z,10.65
2019-05-07T20:14:39.321Z,10.30
2019-05-07T20:17:12.124Z,9.97
2019-05-07T20:19:41.853Z,10.50
2019-05-07T20:22:12.780Z,11.07
2019-05-07T20:24:43.194Z,9.83
2019-05-07T20:27:13.855Z,10.48
2019-05-07T20:29:44.011Z,8.87
2019-05-07T20:32:14.345Z,10.47
2019-05-07T20:34:44.750Z,9.70
2019-05-07T20:37:15.167Z,9.10
2019-05-07T20:39:45.823Z,10.07
2019-05-07T20:42:16.172Z,10.10
2019-05-07T20:44:47.379Z,10.10
2019-05-07T20:47:18.067Z,10.40
2019-05-07T20:49:48.362Z,10.50
2019-05-07T20:52:18.890Z,9.58
2019-05-07T20:55:12.827Z,9.33
2019-05-07T20:57:44.089Z,9.17
2019-05-07T21:00:22.873Z,10.20
2019-05-07T21:03:12.663Z,9.30
2019-05-07T21:05:43.010Z,10.93
2019-05-07T21:08:13.335Z,10.23
2019-05-07T21:10:43.430Z,9.47
2019-05-07T21:13:27.504Z,9.85
2019-05-07T21:15:46.546Z,10.03
2019-05-07T21:18:16.993Z,10.00
2019-05-07T21:20:48.339Z,9.23
2019-05-07T21:23:19.051Z,10.45
2019-05-07T21:25:49.183Z,10.30
2019-05-07T21:28:19.303Z,10.60
2019-05-07T21:30:51.954Z,9.70
2019-05-07T21:33:22.813Z,9.73
2019-05-07T21:35:53.727Z,9.10
2019-05-07T21:38:24.102Z,8.77
2019-05-07T21:40:54.265Z,10.03
2019-05-07T21:43:24.379Z,9.73
2019-05-07T21:45:54.515Z,9.50
2019-05-07T21:48:24.856Z,9.30
2019-05-07T21:50:56.296Z,9.77
2019-05-07T21:53:32.445Z,9.43
2019-05-07T21:56:28.066Z,9.03
2019-05-07T21:59:04.801Z,9.40
2019-05-07T22:01:38.721Z,8.33
2019-05-07T22:04:09.419Z,10.30
2019-05-07T22:06:39.499Z,8.93
2019-05-07T22:09:12.835Z,9.60
2019-05-07T22:11:43.755Z,9.20
2019-05-07T22:14:14.181Z,9.43
2019-05-07T22:16:44.385Z,9.13
2019-05-07T22:19:14.565Z,9.50
2019-05-07T22:21:44.763Z,8.30
2019-05-07T22:24:16.382Z,10.08
2019-05-07T22:26:46.459Z,9.80
2019-05-07T22:29:16.589Z,9.90
2019-05-07T22:32:14.563Z,8.33
2019-05-07T22:34:55.504Z,10.33
2019-05-07T22:37:27.425Z,10.00
2019-05-07T22:40:02.763Z,10.43
2019-05-07T22:42:35.428Z,11.30
2019-05-07T22:45:07.943Z,10.10
2019-05-07T22:47:38.242Z,10.40
2019-05-07T22:50:08.638Z,10.10
2019-05-07T22:52:38.898Z,10.13
2019-05-07T22:55:09.798Z,9.73
2019-05-07T22:58:00.976Z,10.47
2019-05-07T23:00:44.690Z,11.07
2019-05-07T23:03:16.315Z,10.90
2019-05-07T23:05:46.381Z,10.47
2019-05-07T23:08:16.578Z,10.43
2019-05-07T23:10:46.731Z,11.03
2019-05-07T23:13:16.920Z,10.60
2019-05-07T23:15:47.482Z,10.27
2019-05-07T23:18:17.608Z,11.00
2019-05-07T23:20:47.683Z,10.77
2019-05-07T23:23:17.744Z,9.67
2019-05-07T23:25:48.181Z,10.73
2019-05-07T23:28:18.542Z,11.83
2019-05-07T23:30:48.723Z,10.37
2019-05-07T23:33:18.907Z,10.40
2019-05-07T23:35:49.069Z,11.67
2019-05-07T23:38:19.562Z,12.30
2019-05-07T23:41:08.730Z,11.10
2019-05-07T23:43:39.245Z,10.93
2019-05-07T23:46:09.660Z,11.13
2019-05-07T23:48:39.733Z,10.30
2019-05-07T23:51:09.970Z,10.27
2019-05-07T23:53:44.207Z,11.87
2019-05-07T23:56:13.101Z,12.03
2019-05-07T23:58:43.407Z,13.07
